sensor_id;sensor_type;location;lat;lon;timestamp;P1;durP1;ratioP1;P2;durP2;ratioP2
6374;SDS011;35400;45.472;-122.822;2023-03-01T00:00:09;0.40;;;0.40;;
6374;SDS011;35400;45.472;-122.822;2023-03-01T00:02:40;0.30;;;0.30;;
6374;SDS011;35400;45.472;-122.822;2023-03-01T00:05:07;0.70;;;0.60;;
6374;SDS011;35400;45.472;-122.822;2023-03-01T00:07:34;0.60;;;0.60;;
6374;SDS011;35400;45.472;-122.822;2023-03-01T00:10:01;1.30;;;1.20;;
6374;SDS011;35400;45.472;-122.822;2023-03-01T00:12:28;0.67;;;0.53;;
6374;SDS011;35400;45.472;-122.822;2023-03-01T00:14:54;0.60;;;0.40;;
6374;SDS011;35400;45.472;-122.822;2023-03-01T00:17:21;0.20;;;0.20;;
6374;SDS011;35400;45.472;-122.822;2023-03-01T00:19:48;0.40;;;0.40;;
6374;SDS011;35400;45.472;-122.822;2023-03-01T00:22:15;0.30;;;0.30;;
6374;SDS011;35400;45.472;-122.822;2023-03-01T00:24:42;0.50;;;0.50;;
6374;SDS011;35400;45.472;-122.822;2023-03-01T00:27:08;0.60;;;0.60;;
6374;SDS011;35400;45.472;-122.822;2023-03-01T00:29:35;0.60;;;0.60;;
6374;SDS011;35400;45.472;-122.822;2023-03-01T00:32:02;0.50;;;0.50;;
6374;SDS011;35400;45.472;-122.822;2023-03-01T00:34:29;0.50;;;0.50;;
6374;SDS011;35400;45.472;-122.822;2023-03-01T00:36:56;0.73;;;0.57;;
6374;SDS011;35400;45.472;-122.822;2023-03-01T00:39:31;1.57;;;0.70;;
6374;SDS011;35400;45.472;-122.822;2023-03-01T00:41:59;0.60;;;0.60;;
6374;SDS011;35400;45.472;-122.822;2023-03-01T00:44:26;1.70;;;0.50;;
6374;SDS011;35400;45.472;-122.822;2023-03-01T00:46:53;0.67;;;0.67;;
6374;SDS011;35400;45.472;-122.822;2023-03-01T00:49:20;0.53;;;0.53;;
6374;SDS011;35400;45.472;-122.822;2023-03-01T00:51:49;0.63;;;0.63;;
6374;SDS011;35400;45.472;-122.822;2023-03-01T00:54:16;0.80;;;0.80;;
6374;SDS011;35400;45.472;-122.822;2023-03-01T00:56:43;0.83;;;0.83;;
6374;SDS011;35400;45.472;-122.822;2023-03-01T00:59:10;1.00;;;0.70;;
6374;SDS011;35400;45.472;-122.822;2023-03-01T01:01:38;1.33;;;1.10;;
6374;SDS011;35400;45.472;-122.822;2023-03-01T01:04:06;0.80;;;0.80;;
6374;SDS011;35400;45.472;-122.822;2023-03-01T01:06:39;0.70;;;0.70;;
6374;SDS011;35400;45.472;-122.822;2023-03-01T01:09:09;2.83;;;1.50;;
6374;SDS011;35400;45.472;-122.822;2023-03-01T01:11:43;1.67;;;1.57;;
6374;SDS011;35400;45.472;-122.822;2023-03-01T01:14:12;2.30;;;2.00;;
6374;SDS011;35400;45.472;-122.822;2023-03-01T01:16:40;2.27;;;2.07;;
6374;SDS011;35400;45.472;-122.822;2023-03-01T01:19:06;1.73;;;1.63;;
6374;SDS011;35400;45.472;-122.822;2023-03-01T01:21:34;1.97;;;1.83;;
6374;SDS011;35400;45.472;-122.822;2023-03-01T01:24:02;1.97;;;1.80;;
6374;SDS011;35400;45.472;-122.822;2023-03-01T01:26:32;3.03;;;1.93;;
6374;SDS011;35400;45.472;-122.822;2023-03-01T01:28:59;2.03;;;1.80;;
6374;SDS011;35400;45.472;-122.822;2023-03-01T01:31:27;2.40;;;2.20;;
6374;SDS011;35400;45.472;-122.822;2023-03-01T01:33:56;1.43;;;1.33;;
6374;SDS011;35400;45.472;-122.822;2023-03-01T01:36:24;1.80;;;1.70;;
6374;SDS011;35400;45.472;-122.822;2023-03-01T01:38:51;2.27;;;2.07;;
6374;SDS011;35400;45.472;-122.822;2023-03-01T01:41:18;1.60;;;1.50;;
6374;SDS011;35400;45.472;-122.822;2023-03-01T01:43:48;2.30;;;2.00;;
6374;SDS011;35400;45.472;-122.822;2023-03-01T01:46:35;1.87;;;1.77;;
6374;SDS011;35400;45.472;-122.822;2023-03-01T01:49:25;1.67;;;1.57;;
6374;SDS011;35400;45.472;-122.822;2023-03-01T01:52:07;1.80;;;1.70;;
6374;SDS011;35400;45.472;-122.822;2023-03-01T01:57:18;2.80;;;2.47;;
6374;SDS011;35400;45.472;-122.822;2023-03-01T01:59:52;3.07;;;2.77;;
6374;SDS011;35400;45.472;-122.822;2023-03-01T02:02:22;2.40;;;2.20;;
6374;SDS011;35400;45.472;-122.822;2023-03-01T02:04:50;2.80;;;2.50;;
6374;SDS011;35400;45.472;-122.822;2023-03-01T02:07:24;2.70;;;2.50;;
6374;SDS011;35400;45.472;-122.822;2023-03-01T02:09:52;2.83;;;2.63;;
6374;SDS011;35400;45.472;-122.822;2023-03-01T02:12:20;3.23;;;2.60;;
6374;SDS011;35400;45.472;-122.822;2023-03-01T02:14:50;2.93;;;2.63;;
6374;SDS011;35400;45.472;-122.822;2023-03-01T02:17:17;3.20;;;2.97;;
6374;SDS011;35400;45.472;-122.822;2023-03-01T02:22:34;3.60;;;3.10;;
6374;SDS011;35400;45.472;-122.822;2023-03-01T02:27:56;4.47;;;2.90;;
6374;SDS011;35400;45.472;-122.822;2023-03-01T02:30:38;2.37;;;2.13;;
6374;SDS011;35400;45.472;-122.822;2023-03-01T02:33:26;1.13;;;1.00;;
6374;SDS011;35400;45.472;-122.822;2023-03-01T02:35:54;1.50;;;1.30;;
6374;SDS011;35400;45.472;-122.822;2023-03-01T02:38:21;0.80;;;0.80;;
6374;SDS011;35400;45.472;-122.822;2023-03-01T02:40:50;3.07;;;1.40;;
6374;SDS011;35400;45.472;-122.822;2023-03-01T02:43:18;2.27;;;1.10;;
6374;SDS011;35400;45.472;-122.822;2023-03-01T02:45:49;2.33;;;1.30;;
6374;SDS011;35400;45.472;-122.822;2023-03-01T02:48:21;1.70;;;1.03;;
6374;SDS011;35400;45.472;-122.822;2023-03-01T02:51:02;1.30;;;1.20;;
6374;SDS011;35400;45.472;-122.822;2023-03-01T02:56:10;1.00;;;1.00;;
6374;SDS011;35400;45.472;-122.822;2023-03-01T02:58:42;1.80;;;1.07;;
6374;SDS011;35400;45.472;-122.822;2023-03-01T03:01:18;1.40;;;1.07;;
6374;SDS011;35400;45.472;-122.822;2023-03-01T03:03:46;1.07;;;0.90;;
6374;SDS011;35400;45.472;-122.822;2023-03-01T03:06:13;2.53;;;1.17;;
6374;SDS011;35400;45.472;-122.822;2023-03-01T03:08:40;1.33;;;1.10;;
6374;SDS011;35400;45.472;-122.822;2023-03-01T03:11:08;1.60;;;1.10;;
6374;SDS011;35400;45.472;-122.822;2023-03-01T03:13:35;3.77;;;1.47;;
6374;SDS011;35400;45.472;-122.822;2023-03-01T03:16:02;2.40;;;1.50;;
6374;SDS011;35400;45.472;-122.822;2023-03-01T03:18:30;2.90;;;1.37;;
6374;SDS011;35400;45.472;-122.822;2023-03-01T03:20:57;2.30;;;1.53;;
6374;SDS011;35400;45.472;-122.822;2023-03-01T03:23:24;3.07;;;1.70;;
6374;SDS011;35400;45.472;-122.822;2023-03-01T03:25:51;2.67;;;2.23;;
6374;SDS011;35400;45.472;-122.822;2023-03-01T03:28:18;3.03;;;2.13;;
6374;SDS011;35400;45.472;-122.822;2023-03-01T03:30:45;3.17;;;2.60;;
6374;SDS011;35400;45.472;-122.822;2023-03-01T03:33:12;3.10;;;2.67;;
6374;SDS011;35400;45.472;-122.822;2023-03-01T03:35:46;3.33;;;2.93;;
6374;SDS011;35400;45.472;-122.822;2023-03-01T03:38:15;3.87;;;2.93;;
6374;SDS011;35400;45.472;-122.822;2023-03-01T03:43:14;5.03;;;3.93;;
6374;SDS011;35400;45.472;-122.822;2023-03-01T03:45:46;4.73;;;3.60;;
6374;SDS011;35400;45.472;-122.822;2023-03-01T03:48:15;3.93;;;3.57;;
6374;SDS011;35400;45.472;-122.822;2023-03-01T03:50:47;4.90;;;4.40;;
6374;SDS011;35400;45.472;-122.822;2023-03-01T03:53:19;5.23;;;4.63;;
6374;SDS011;35400;45.472;-122.822;2023-03-01T03:55:46;8.00;;;5.97;;
6374;SDS011;35400;45.472;-122.822;2023-03-01T03:58:18;12.60;;;8.37;;
6374;SDS011;35400;45.472;-122.822;2023-03-01T04:00:48;12.17;;;8.00;;
6374;SDS011;35400;45.472;-122.822;2023-03-01T04:03:17;8.53;;;6.23;;
6374;SDS011;35400;45.472;-122.822;2023-03-01T04:05:46;8.70;;;6.10;;
6374;SDS011;35400;45.472;-122.822;2023-03-01T04:08:13;8.77;;;7.10;;
6374;SDS011;35400;45.472;-122.822;2023-03-01T04:10:42;14.40;;;9.23;;
6374;SDS011;35400;45.472;-122.822;2023-03-01T04:13:12;12.03;;;8.17;;
6374;SDS011;35400;45.472;-122.822;2023-03-01T04:15:40;10.03;;;7.27;;
6374;SDS011;35400;45.472;-122.822;2023-03-01T04:18:08;9.70;;;7.83;;
6374;SDS011;35400;45.472;-122.822;2023-03-01T04:20:39;10.67;;;7.63;;
6374;SDS011;35400;45.472;-122.822;2023-03-01T04:23:11;10.63;;;6.83;;
6374;SDS011;35400;45.472;-122.822;2023-03-01T04:25:48;8.83;;;6.60;;
6374;SDS011;35400;45.472;-122.822;2023-03-01T04:28:24;9.57;;;7.07;;
6374;SDS011;35400;45.472;-122.822;2023-03-01T04:31:02;8.63;;;6.50;;
6374;SDS011;35400;45.472;-122.822;2023-03-01T04:33:42;9.23;;;5.87;;
6374;SDS011;35400;45.472;-122.822;2023-03-01T04:36:10;9.50;;;4.97;;
6374;SDS011;35400;45.472;-122.822;2023-03-01T04:38:38;8.30;;;5.70;;
6374;SDS011;35400;45.472;-122.822;2023-03-01T04:41:07;7.13;;;5.50;;
6374;SDS011;35400;45.472;-122.822;2023-03-01T04:43:36;7.20;;;5.20;;
6374;SDS011;35400;45.472;-122.822;2023-03-01T04:46:04;9.43;;;5.90;;
6374;SDS011;35400;45.472;-122.822;2023-03-01T04:48:39;9.33;;;6.43;;
6374;SDS011;35400;45.472;-122.822;2023-03-01T04:51:07;7.07;;;5.57;;
6374;SDS011;35400;45.472;-122.822;2023-03-01T04:53:34;8.00;;;5.80;;
6374;SDS011;35400;45.472;-122.822;2023-03-01T04:56:04;9.20;;;6.03;;
6374;SDS011;35400;45.472;-122.822;2023-03-01T04:58:32;10.20;;;6.97;;
6374;SDS011;35400;45.472;-122.822;2023-03-01T05:00:59;12.93;;;7.73;;
6374;SDS011;35400;45.472;-122.822;2023-03-01T05:03:26;11.07;;;6.33;;
6374;SDS011;35400;45.472;-122.822;2023-03-01T05:05:53;8.13;;;5.70;;
6374;SDS011;35400;45.472;-122.822;2023-03-01T05:08:25;7.17;;;5.60;;
6374;SDS011;35400;45.472;-122.822;2023-03-01T05:10:52;8.13;;;6.57;;
6374;SDS011;35400;45.472;-122.822;2023-03-01T05:13:20;8.07;;;5.07;;
6374;SDS011;35400;45.472;-122.822;2023-03-01T05:15:48;6.67;;;5.20;;
6374;SDS011;35400;45.472;-122.822;2023-03-01T05:18:26;7.47;;;5.70;;
6374;SDS011;35400;45.472;-122.822;2023-03-01T05:21:00;6.47;;;5.50;;
6374;SDS011;35400;45.472;-122.822;2023-03-01T05:23:38;8.90;;;5.80;;
6374;SDS011;35400;45.472;-122.822;2023-03-01T05:26:05;8.10;;;4.90;;
6374;SDS011;35400;45.472;-122.822;2023-03-01T05:28:32;9.23;;;4.80;;
6374;SDS011;35400;45.472;-122.822;2023-03-01T05:31:00;4.80;;;3.77;;
6374;SDS011;35400;45.472;-122.822;2023-03-01T05:33:27;5.17;;;4.17;;
6374;SDS011;35400;45.472;-122.822;2023-03-01T05:35:54;4.67;;;4.00;;
6374;SDS011;35400;45.472;-122.822;2023-03-01T05:38:25;6.43;;;3.77;;
6374;SDS011;35400;45.472;-122.822;2023-03-01T05:40:51;5.53;;;4.00;;
6374;SDS011;35400;45.472;-122.822;2023-03-01T05:43:19;5.20;;;4.07;;
6374;SDS011;35400;45.472;-122.822;2023-03-01T05:45:46;5.03;;;3.70;;
6374;SDS011;35400;45.472;-122.822;2023-03-01T05:48:13;5.30;;;4.40;;
6374;SDS011;35400;45.472;-122.822;2023-03-01T05:50:41;4.70;;;3.47;;
6374;SDS011;35400;45.472;-122.822;2023-03-01T05:53:11;4.33;;;3.93;;
6374;SDS011;35400;45.472;-122.822;2023-03-01T05:55:42;4.20;;;3.43;;
6374;SDS011;35400;45.472;-122.822;2023-03-01T05:58:12;4.50;;;3.63;;
6374;SDS011;35400;45.472;-122.822;2023-03-01T06:00:42;4.80;;;3.70;;
6374;SDS011;35400;45.472;-122.822;2023-03-01T06:03:10;7.43;;;3.67;;
6374;SDS011;35400;45.472;-122.822;2023-03-01T06:05:39;6.50;;;4.60;;
6374;SDS011;35400;45.472;-122.822;2023-03-01T06:08:06;4.67;;;4.17;;
6374;SDS011;35400;45.472;-122.822;2023-03-01T06:10:35;5.70;;;4.20;;
6374;SDS011;35400;45.472;-122.822;2023-03-01T06:13:02;5.90;;;4.47;;
6374;SDS011;35400;45.472;-122.822;2023-03-01T06:15:29;5.60;;;4.93;;
6374;SDS011;35400;45.472;-122.822;2023-03-01T06:17:56;6.83;;;4.97;;
6374;SDS011;35400;45.472;-122.822;2023-03-01T06:20:24;6.30;;;4.73;;
6374;SDS011;35400;45.472;-122.822;2023-03-01T06:22:52;8.47;;;4.87;;
6374;SDS011;35400;45.472;-122.822;2023-03-01T06:25:20;7.00;;;4.70;;
6374;SDS011;35400;45.472;-122.822;2023-03-01T06:27:49;6.70;;;5.30;;
6374;SDS011;35400;45.472;-122.822;2023-03-01T06:30:18;8.43;;;5.87;;
6374;SDS011;35400;45.472;-122.822;2023-03-01T06:32:46;8.77;;;5.90;;
6374;SDS011;35400;45.472;-122.822;2023-03-01T06:35:14;12.37;;;6.97;;
6374;SDS011;35400;45.472;-122.822;2023-03-01T06:37:44;15.13;;;9.47;;
6374;SDS011;35400;45.472;-122.822;2023-03-01T06:40:12;11.80;;;7.10;;
6374;SDS011;35400;45.472;-122.822;2023-03-01T06:42:40;11.23;;;6.57;;
6374;SDS011;35400;45.472;-122.822;2023-03-01T06:45:08;10.83;;;7.07;;
6374;SDS011;35400;45.472;-122.822;2023-03-01T06:47:35;9.80;;;6.93;;
6374;SDS011;35400;45.472;-122.822;2023-03-01T06:50:03;9.80;;;6.43;;
6374;SDS011;35400;45.472;-122.822;2023-03-01T06:52:30;9.83;;;6.27;;
6374;SDS011;35400;45.472;-122.822;2023-03-01T06:54:57;8.07;;;6.30;;
6374;SDS011;35400;45.472;-122.822;2023-03-01T06:57:24;12.10;;;6.67;;
6374;SDS011;35400;45.472;-122.822;2023-03-01T06:59:51;9.13;;;5.70;;
6374;SDS011;35400;45.472;-122.822;2023-03-01T07:02:18;8.77;;;5.50;;
6374;SDS011;35400;45.472;-122.822;2023-03-01T07:04:45;8.13;;;6.00;;
6374;SDS011;35400;45.472;-122.822;2023-03-01T07:07:12;7.10;;;5.50;;
6374;SDS011;35400;45.472;-122.822;2023-03-01T07:09:39;8.27;;;5.57;;
6374;SDS011;35400;45.472;-122.822;2023-03-01T07:12:06;7.63;;;5.97;;
6374;SDS011;35400;45.472;-122.822;2023-03-01T07:14:33;7.87;;;5.90;;
6374;SDS011;35400;45.472;-122.822;2023-03-01T07:17:00;8.90;;;6.13;;
6374;SDS011;35400;45.472;-122.822;2023-03-01T07:19:27;10.53;;;7.17;;
6374;SDS011;35400;45.472;-122.822;2023-03-01T07:21:54;9.43;;;7.03;;
6374;SDS011;35400;45.472;-122.822;2023-03-01T07:24:21;9.63;;;6.87;;
6374;SDS011;35400;45.472;-122.822;2023-03-01T07:26:48;12.10;;;8.07;;
6374;SDS011;35400;45.472;-122.822;2023-03-01T07:29:16;11.77;;;7.57;;
6374;SDS011;35400;45.472;-122.822;2023-03-01T07:31:43;12.40;;;7.37;;
6374;SDS011;35400;45.472;-122.822;2023-03-01T07:34:10;11.17;;;7.57;;
6374;SDS011;35400;45.472;-122.822;2023-03-01T07:36:37;10.73;;;7.33;;
6374;SDS011;35400;45.472;-122.822;2023-03-01T07:39:05;10.23;;;6.83;;
6374;SDS011;35400;45.472;-122.822;2023-03-01T07:41:32;9.00;;;6.53;;
6374;SDS011;35400;45.472;-122.822;2023-03-01T07:43:58;9.13;;;6.57;;
6374;SDS011;35400;45.472;-122.822;2023-03-01T07:46:25;10.83;;;7.13;;
6374;SDS011;35400;45.472;-122.822;2023-03-01T07:48:53;13.93;;;6.73;;
6374;SDS011;35400;45.472;-122.822;2023-03-01T07:51:19;13.43;;;8.70;;
6374;SDS011;35400;45.472;-122.822;2023-03-01T07:53:47;9.70;;;7.63;;
6374;SDS011;35400;45.472;-122.822;2023-03-01T07:56:14;11.53;;;7.70;;
6374;SDS011;35400;45.472;-122.822;2023-03-01T07:58:46;12.67;;;8.03;;
6374;SDS011;35400;45.472;-122.822;2023-03-01T08:01:14;14.43;;;9.63;;
6374;SDS011;35400;45.472;-122.822;2023-03-01T08:03:43;16.40;;;9.60;;
6374;SDS011;35400;45.472;-122.822;2023-03-01T08:06:10;15.30;;;9.80;;
6374;SDS011;35400;45.472;-122.822;2023-03-01T08:08:39;15.30;;;9.47;;
6374;SDS011;35400;45.472;-122.822;2023-03-01T08:11:07;16.10;;;9.47;;
6374;SDS011;35400;45.472;-122.822;2023-03-01T08:13:35;20.40;;;9.87;;
6374;SDS011;35400;45.472;-122.822;2023-03-01T08:16:03;16.80;;;10.20;;
6374;SDS011;35400;45.472;-122.822;2023-03-01T08:18:36;18.27;;;10.10;;
6374;SDS011;35400;45.472;-122.822;2023-03-01T08:21:06;22.97;;;10.67;;
6374;SDS011;35400;45.472;-122.822;2023-03-01T08:23:35;17.10;;;9.17;;
6374;SDS011;35400;45.472;-122.822;2023-03-01T08:26:18;12.70;;;8.77;;
6374;SDS011;35400;45.472;-122.822;2023-03-01T08:28:47;17.90;;;9.73;;
6374;SDS011;35400;45.472;-122.822;2023-03-01T08:31:16;13.33;;;8.87;;
6374;SDS011;35400;45.472;-122.822;2023-03-01T08:33:44;13.77;;;9.30;;
6374;SDS011;35400;45.472;-122.822;2023-03-01T08:36:21;15.30;;;8.87;;
6374;SDS011;35400;45.472;-122.822;2023-03-01T08:38:49;14.70;;;8.77;;
6374;SDS011;35400;45.472;-122.822;2023-03-01T08:41:17;11.40;;;8.97;;
6374;SDS011;35400;45.472;-122.822;2023-03-01T08:43:43;11.17;;;8.40;;
6374;SDS011;35400;45.472;-122.822;2023-03-01T08:46:11;10.47;;;8.37;;
6374;SDS011;35400;45.472;-122.822;2023-03-01T08:48:38;9.70;;;8.03;;
6374;SDS011;35400;45.472;-122.822;2023-03-01T08:51:09;12.97;;;8.10;;
6374;SDS011;35400;45.472;-122.822;2023-03-01T08:53:42;8.93;;;7.47;;
6374;SDS011;35400;45.472;-122.822;2023-03-01T08:56:09;8.67;;;7.10;;
6374;SDS011;35400;45.472;-122.822;2023-03-01T08:58:37;10.77;;;7.07;;
6374;SDS011;35400;45.472;-122.822;2023-03-01T09:01:11;10.70;;;7.43;;
6374;SDS011;35400;45.472;-122.822;2023-03-01T09:03:40;9.23;;;7.13;;
6374;SDS011;35400;45.472;-122.822;2023-03-01T09:06:08;9.73;;;7.13;;
6374;SDS011;35400;45.472;-122.822;2023-03-01T09:08:40;8.77;;;6.70;;
6374;SDS011;35400;45.472;-122.822;2023-03-01T09:11:09;14.87;;;7.77;;
6374;SDS011;35400;45.472;-122.822;2023-03-01T09:13:37;11.83;;;7.23;;
6374;SDS011;35400;45.472;-122.822;2023-03-01T09:16:05;9.40;;;7.27;;
6374;SDS011;35400;45.472;-122.822;2023-03-01T09:18:33;9.27;;;6.77;;
6374;SDS011;35400;45.472;-122.822;2023-03-01T09:21:02;9.97;;;7.30;;
6374;SDS011;35400;45.472;-122.822;2023-03-01T09:23:36;11.80;;;7.13;;
6374;SDS011;35400;45.472;-122.822;2023-03-01T09:26:08;12.03;;;7.53;;
6374;SDS011;35400;45.472;-122.822;2023-03-01T09:28:36;12.33;;;8.67;;
6374;SDS011;35400;45.472;-122.822;2023-03-01T09:31:04;15.10;;;8.63;;
6374;SDS011;35400;45.472;-122.822;2023-03-01T09:33:31;12.00;;;7.23;;
6374;SDS011;35400;45.472;-122.822;2023-03-01T09:35:59;14.40;;;7.70;;
6374;SDS011;35400;45.472;-122.822;2023-03-01T09:38:28;10.43;;;7.40;;
6374;SDS011;35400;45.472;-122.822;2023-03-01T09:40:55;10.33;;;7.03;;
6374;SDS011;35400;45.472;-122.822;2023-03-01T09:43:39;9.53;;;6.60;;
6374;SDS011;35400;45.472;-122.822;2023-03-01T09:46:20;10.47;;;7.10;;
6374;SDS011;35400;45.472;-122.822;2023-03-01T09:48:59;11.53;;;8.13;;
6374;SDS011;35400;45.472;-122.822;2023-03-01T09:51:31;12.13;;;8.30;;
6374;SDS011;35400;45.472;-122.822;2023-03-01T09:54:03;13.47;;;7.93;;
6374;SDS011;35400;45.472;-122.822;2023-03-01T09:56:40;13.70;;;7.83;;
6374;SDS011;35400;45.472;-122.822;2023-03-01T10:10:26;17.40;;;9.10;;
6374;SDS011;35400;45.472;-122.822;2023-03-01T10:12:59;13.40;;;8.77;;
6374;SDS011;35400;45.472;-122.822;2023-03-01T10:15:36;11.93;;;8.63;;
6374;SDS011;35400;45.472;-122.822;2023-03-01T10:18:28;12.70;;;8.30;;
6374;SDS011;35400;45.472;-122.822;2023-03-01T10:23:27;9.87;;;6.83;;
6374;SDS011;35400;45.472;-122.822;2023-03-01T10:31:36;10.77;;;6.50;;
6374;SDS011;35400;45.472;-122.822;2023-03-01T10:34:10;9.23;;;5.83;;
6374;SDS011;35400;45.472;-122.822;2023-03-01T10:36:56;9.97;;;6.60;;
6374;SDS011;35400;45.472;-122.822;2023-03-01T10:39:36;9.03;;;7.07;;
6374;SDS011;35400;45.472;-122.822;2023-03-01T10:42:09;9.27;;;6.73;;
6374;SDS011;35400;45.472;-122.822;2023-03-01T10:44:54;7.93;;;6.03;;
6374;SDS011;35400;45.472;-122.822;2023-03-01T10:47:22;11.03;;;7.23;;
6374;SDS011;35400;45.472;-122.822;2023-03-01T10:52:25;13.40;;;7.10;;
6374;SDS011;35400;45.472;-122.822;2023-03-01T10:55:04;10.50;;;7.00;;
6374;SDS011;35400;45.472;-122.822;2023-03-01T10:57:56;10.03;;;7.23;;
6374;SDS011;35400;45.472;-122.822;2023-03-01T11:00:49;10.50;;;7.67;;
6374;SDS011;35400;45.472;-122.822;2023-03-01T11:03:21;11.07;;;7.90;;
6374;SDS011;35400;45.472;-122.822;2023-03-01T11:08:45;11.57;;;8.00;;
6374;SDS011;35400;45.472;-122.822;2023-03-01T11:11:23;14.23;;;8.80;;
6374;SDS011;35400;45.472;-122.822;2023-03-01T11:13:59;12.00;;;8.20;;
6374;SDS011;35400;45.472;-122.822;2023-03-01T11:27:04;10.53;;;8.17;;
6374;SDS011;35400;45.472;-122.822;2023-03-01T11:29:50;11.03;;;7.33;;
6374;SDS011;35400;45.472;-122.822;2023-03-01T11:32:27;9.63;;;7.40;;
6374;SDS011;35400;45.472;-122.822;2023-03-01T11:34:59;10.63;;;7.40;;
6374;SDS011;35400;45.472;-122.822;2023-03-01T11:37:42;10.50;;;7.23;;
6374;SDS011;35400;45.472;-122.822;2023-03-01T11:40:54;10.73;;;7.07;;
6374;SDS011;35400;45.472;-122.822;2023-03-01T11:43:26;10.17;;;7.27;;
6374;SDS011;35400;45.472;-122.822;2023-03-01T11:52:15;10.23;;;7.90;;
6374;SDS011;35400;45.472;-122.822;2023-03-01T12:09:18;13.70;;;8.83;;
6374;SDS011;35400;45.472;-122.822;2023-03-01T12:25:16;10.60;;;7.87;;
6374;SDS011;35400;45.472;-122.822;2023-03-01T12:36:15;12.47;;;9.57;;
6374;SDS011;35400;45.472;-122.822;2023-03-01T12:38:49;12.27;;;9.70;;
6374;SDS011;35400;45.472;-122.822;2023-03-01T12:44:24;12.97;;;10.03;;
6374;SDS011;35400;45.472;-122.822;2023-03-01T12:49:54;8.50;;;7.17;;
6374;SDS011;35400;45.472;-122.822;2023-03-01T12:58:07;7.97;;;6.00;;
6374;SDS011;35400;45.472;-122.822;2023-03-01T13:00:54;8.10;;;6.37;;
6374;SDS011;35400;45.472;-122.822;2023-03-01T13:03:48;8.90;;;6.43;;
6374;SDS011;35400;45.472;-122.822;2023-03-01T13:11:45;5.97;;;5.37;;
6374;SDS011;35400;45.472;-122.822;2023-03-01T13:16:51;6.10;;;4.60;;
6374;SDS011;35400;45.472;-122.822;2023-03-01T13:19:19;5.33;;;4.60;;
6374;SDS011;35400;45.472;-122.822;2023-03-01T13:21:48;5.60;;;4.40;;
6374;SDS011;35400;45.472;-122.822;2023-03-01T13:24:26;6.60;;;5.07;;
6374;SDS011;35400;45.472;-122.822;2023-03-01T13:32:24;6.60;;;4.50;;
6374;SDS011;35400;45.472;-122.822;2023-03-01T13:37:36;4.90;;;4.37;;
6374;SDS011;35400;45.472;-122.822;2023-03-01T13:40:05;5.30;;;4.07;;
6374;SDS011;35400;45.472;-122.822;2023-03-01T13:42:51;5.83;;;4.53;;
6374;SDS011;35400;45.472;-122.822;2023-03-01T13:45:20;7.47;;;4.60;;
6374;SDS011;35400;45.472;-122.822;2023-03-01T13:47:49;6.47;;;5.17;;
6374;SDS011;35400;45.472;-122.822;2023-03-01T13:50:26;6.53;;;4.57;;
6374;SDS011;35400;45.472;-122.822;2023-03-01T13:52:56;6.80;;;4.83;;
6374;SDS011;35400;45.472;-122.822;2023-03-01T13:55:32;5.47;;;4.60;;
6374;SDS011;35400;45.472;-122.822;2023-03-01T13:58:19;7.37;;;4.57;;
6374;SDS011;35400;45.472;-122.822;2023-03-01T14:00:55;5.73;;;4.60;;
6374;SDS011;35400;45.472;-122.822;2023-03-01T14:03:33;6.77;;;5.00;;
6374;SDS011;35400;45.472;-122.822;2023-03-01T14:06:08;7.88;;;5.90;;
6374;SDS011;35400;45.472;-122.822;2023-03-01T14:08:41;6.00;;;4.93;;
6374;SDS011;35400;45.472;-122.822;2023-03-01T14:19:47;5.63;;;4.83;;
6374;SDS011;35400;45.472;-122.822;2023-03-01T14:22:21;7.03;;;4.40;;
6374;SDS011;35400;45.472;-122.822;2023-03-01T14:25:00;6.77;;;4.70;;
6374;SDS011;35400;45.472;-122.822;2023-03-01T14:27:40;4.47;;;4.03;;
6374;SDS011;35400;45.472;-122.822;2023-03-01T14:30:11;7.37;;;4.73;;
6374;SDS011;35400;45.472;-122.822;2023-03-01T14:33:00;6.77;;;4.73;;
6374;SDS011;35400;45.472;-122.822;2023-03-01T14:35:31;6.27;;;4.53;;
6374;SDS011;35400;45.472;-122.822;2023-03-01T14:38:00;8.93;;;5.90;;
6374;SDS011;35400;45.472;-122.822;2023-03-01T14:40:30;6.00;;;5.40;;
6374;SDS011;35400;45.472;-122.822;2023-03-01T14:43:01;7.17;;;5.20;;
6374;SDS011;35400;45.472;-122.822;2023-03-01T14:45:35;7.67;;;5.10;;
6374;SDS011;35400;45.472;-122.822;2023-03-01T14:48:03;6.90;;;4.83;;
6374;SDS011;35400;45.472;-122.822;2023-03-01T14:50:32;7.67;;;5.60;;
6374;SDS011;35400;45.472;-122.822;2023-03-01T14:53:01;6.93;;;5.43;;
6374;SDS011;35400;45.472;-122.822;2023-03-01T14:55:41;8.03;;;5.77;;
6374;SDS011;35400;45.472;-122.822;2023-03-01T14:58:15;6.77;;;5.00;;
6374;SDS011;35400;45.472;-122.822;2023-03-01T15:00:50;8.07;;;6.03;;
6374;SDS011;35400;45.472;-122.822;2023-03-01T15:06:07;10.33;;;6.33;;
6374;SDS011;35400;45.472;-122.822;2023-03-01T15:08:35;9.77;;;6.40;;
6374;SDS011;35400;45.472;-122.822;2023-03-01T15:13:50;6.90;;;5.43;;
6374;SDS011;35400;45.472;-122.822;2023-03-01T15:18:48;7.50;;;5.70;;
6374;SDS011;35400;45.472;-122.822;2023-03-01T15:23:53;12.03;;;6.87;;
6374;SDS011;35400;45.472;-122.822;2023-03-01T15:26:30;11.03;;;6.50;;
6374;SDS011;35400;45.472;-122.822;2023-03-01T15:29:16;8.83;;;6.00;;
6374;SDS011;35400;45.472;-122.822;2023-03-01T15:32:20;9.57;;;6.13;;
6374;SDS011;35400;45.472;-122.822;2023-03-01T15:34:49;9.50;;;6.00;;
6374;SDS011;35400;45.472;-122.822;2023-03-01T15:40:22;10.57;;;7.17;;
6374;SDS011;35400;45.472;-122.822;2023-03-01T15:42:59;10.90;;;6.80;;
6374;SDS011;35400;45.472;-122.822;2023-03-01T15:45:29;12.23;;;7.47;;
6374;SDS011;35400;45.472;-122.822;2023-03-01T15:48:00;15.20;;;8.57;;
6374;SDS011;35400;45.472;-122.822;2023-03-01T15:50:40;12.67;;;8.17;;
6374;SDS011;35400;45.472;-122.822;2023-03-01T15:53:12;10.53;;;7.07;;
6374;SDS011;35400;45.472;-122.822;2023-03-01T15:55:40;12.50;;;8.43;;
6374;SDS011;35400;45.472;-122.822;2023-03-01T15:58:15;12.40;;;7.23;;
6374;SDS011;35400;45.472;-122.822;2023-03-01T16:00:47;10.63;;;7.77;;
6374;SDS011;35400;45.472;-122.822;2023-03-01T16:03:17;14.13;;;8.73;;
6374;SDS011;35400;45.472;-122.822;2023-03-01T16:05:47;14.87;;;8.70;;
6374;SDS011;35400;45.472;-122.822;2023-03-01T16:08:16;12.70;;;8.57;;
6374;SDS011;35400;45.472;-122.822;2023-03-01T16:10:44;14.57;;;8.60;;
6374;SDS011;35400;45.472;-122.822;2023-03-01T16:13:12;14.53;;;8.60;;
6374;SDS011;35400;45.472;-122.822;2023-03-01T16:15:39;13.07;;;8.77;;
6374;SDS011;35400;45.472;-122.822;2023-03-01T16:18:07;13.27;;;7.67;;
6374;SDS011;35400;45.472;-122.822;2023-03-01T16:20:35;12.70;;;8.33;;
6374;SDS011;35400;45.472;-122.822;2023-03-01T16:23:05;13.07;;;7.77;;
6374;SDS011;35400;45.472;-122.822;2023-03-01T16:25:33;12.53;;;7.43;;
6374;SDS011;35400;45.472;-122.822;2023-03-01T16:28:00;13.37;;;7.83;;
6374;SDS011;35400;45.472;-122.822;2023-03-01T16:30:30;12.40;;;7.67;;
6374;SDS011;35400;45.472;-122.822;2023-03-01T16:32:57;12.67;;;8.23;;
6374;SDS011;35400;45.472;-122.822;2023-03-01T16:35:24;12.33;;;7.80;;
6374;SDS011;35400;45.472;-122.822;2023-03-01T16:37:51;12.70;;;7.87;;
6374;SDS011;35400;45.472;-122.822;2023-03-01T16:40:21;13.47;;;8.13;;
6374;SDS011;35400;45.472;-122.822;2023-03-01T16:42:53;12.20;;;7.73;;
6374;SDS011;35400;45.472;-122.822;2023-03-01T16:45:26;13.20;;;8.17;;
6374;SDS011;35400;45.472;-122.822;2023-03-01T16:47:58;15.77;;;8.00;;
6374;SDS011;35400;45.472;-122.822;2023-03-01T16:50:25;12.53;;;8.00;;
6374;SDS011;35400;45.472;-122.822;2023-03-01T16:52:52;12.63;;;7.20;;
6374;SDS011;35400;45.472;-122.822;2023-03-01T16:55:18;12.73;;;7.60;;
6374;SDS011;35400;45.472;-122.822;2023-03-01T16:57:45;12.97;;;7.73;;